Time;durP1;ratioP1;P1;durP2;ratioP2;P2;SDS_P1;SDS_P2;PMS_P1;PMS_P2;Temp;Humidity;BMP_temperature;BMP_pressure;BME280_temperature;BME280_humidity;BME280_pressure;Samples;Min_cycle;Max_cycle;Signal;HPM_P1;HPM_P2
2023/07/25 00:00:34;;;;;;;7.53;2.55;;;17.30;72.20;;;;;;5052057;28;20037;-66
2023/07/25 00:03:00;;;;;;;6.35;2.42;;;17.30;72.20;;;;;;5054327;28;20024;-66
2023/07/25 00:05:26;;;;;;;8.00;2.88;;;17.30;72.10;;;;;;5053993;28;20111;-66
2023/07/25 00:07:51;;;;;;;6.82;2.45;;;17.30;72.10;;;;;;5046319;28;20063;-66
2023/07/25 00:10:18;;;;;;;5.32;2.28;;;17.20;72.10;;;;;;5048057;28;20036;-66
2023/07/25 00:12:44;;;;;;;7.20;2.40;;;17.20;72.10;;;;;;5043703;28;20041;-66
2023/07/25 00:15:11;;;;;;;7.03;2.50;;;17.30;72.10;;;;;;5053770;28;20055;-66
2023/07/25 00:17:36;;;;;;;9.38;2.25;;;17.30;72.00;;;;;;5048522;28;20044;-66
2023/07/25 00:20:03;;;;;;;4.80;2.50;;;17.30;72.00;;;;;;5046049;28;20024;-66
2023/07/25 00:22:28;;;;;;;5.95;2.45;;;17.30;71.90;;;;;;5053366;28;20378;-66
2023/07/25 00:24:54;;;;;;;6.50;2.72;;;17.20;72.00;;;;;;5053810;28;20043;-66
2023/07/25 00:27:20;;;;;;;8.15;2.80;;;17.20;71.90;;;;;;5052687;28;20414;-66
2023/07/25 00:29:47;;;;;;;7.25;2.45;;;17.20;71.90;;;;;;5051124;28;20544;-66
2023/07/25 00:32:12;;;;;;;9.25;2.63;;;17.20;71.80;;;;;;5053934;28;20090;-66
2023/07/25 00:34:38;;;;;;;5.97;1.98;;;17.30;71.80;;;;;;5048671;28;20394;-66
2023/07/25 00:37:04;;;;;;;5.60;2.20;;;17.20;71.70;;;;;;5053992;28;20035;-66
2023/07/25 00:39:30;;;;;;;7.25;2.47;;;17.20;71.70;;;;;;5050374;28;20028;-66
2023/07/25 00:41:56;;;;;;;9.57;2.85;;;17.20;71.60;;;;;;5052990;28;20357;-66
2023/07/25 00:44:22;;;;;;;5.80;2.17;;;17.20;71.60;;;;;;5052510;28;20036;-66
2023/07/25 00:46:48;;;;;;;8.05;2.38;;;17.20;71.60;;;;;;5050953;28;20450;-66
2023/07/25 00:49:13;;;;;;;8.05;2.63;;;17.10;71.70;;;;;;5066033;28;20457;-66
2023/07/25 00:51:39;;;;;;;8.32;2.83;;;17.10;71.80;;;;;;5053279;28;20021;-66
2023/07/25 00:54:06;;;;;;;5.60;2.20;;;17.10;71.90;;;;;;5051109;28;20063;-66
2023/07/25 00:56:31;;;;;;;6.55;2.22;;;17.10;71.90;;;;;;5053526;28;20030;-66
2023/07/25 00:58:57;;;;;;;7.45;2.60;;;17.10;71.90;;;;;;5043303;28;20024;-66
2023/07/25 01:01:24;;;;;;;7.10;2.50;;;17.10;72.00;;;;;;5050900;28;20446;-66
2023/07/25 01:03:53;;;;;;;7.32;2.38;;;17.00;72.00;;;;;;5052671;28;20029;-66
2023/07/25 01:06:19;;;;;;;6.97;2.38;;;17.00;72.00;;;;;;5050659;28;20094;-66
2023/07/25 01:08:53;;;;;;;8.43;2.67;;;17.00;72.10;;;;;;5046088;28;20442;-66
2023/07/25 01:11:19;;;;;;;6.32;2.50;;;17.00;72.10;;;;;;5046478;28;20048;-66
2023/07/25 01:13:46;;;;;;;5.70;2.30;;;16.90;72.20;;;;;;5040702;28;20529;-66
2023/07/25 01:16:17;;;;;;;6.68;2.60;;;16.90;72.20;;;;;;5047459;28;20013;-66
2023/07/25 01:18:45;;;;;;;7.03;2.40;;;16.90;72.20;;;;;;5049365;28;20441;-66
2023/07/25 01:21:12;;;;;;;6.45;2.25;;;16.80;72.20;;;;;;5050035;28;20112;-66
2023/07/25 01:23:38;;;;;;;8.20;2.83;;;16.80;72.30;;;;;;5052637;28;20037;-66
2023/07/25 01:26:04;;;;;;;7.45;2.42;;;16.80;72.30;;;;;;5048115;28;20025;-66
2023/07/25 01:28:30;;;;;;;8.15;2.67;;;16.80;72.40;;;;;;5053563;28;20116;-66
2023/07/25 01:30:57;;;;;;;7.28;2.40;;;16.80;72.40;;;;;;5049229;28;20024;-65
2023/07/25 01:33:23;;;;;;;7.78;2.60;;;16.80;72.40;;;;;;5052601;28;20075;-66
2023/07/25 01:35:49;;;;;;;8.65;3.05;;;16.70;72.40;;;;;;5051838;28;20029;-65
2023/07/25 01:38:15;;;;;;;9.75;2.88;;;16.70;72.40;;;;;;5052699;28;20021;-66
2023/07/25 01:40:41;;;;;;;7.60;3.00;;;16.70;72.50;;;;;;5034468;28;20059;-66
2023/07/25 01:43:08;;;;;;;7.35;2.60;;;16.70;72.40;;;;;;5052808;28;20436;-66
2023/07/25 01:45:34;;;;;;;7.30;2.83;;;16.70;72.50;;;;;;5053500;28;20038;-66
2023/07/25 01:48:00;;;;;;;6.63;2.80;;;16.70;72.60;;;;;;5057002;28;20115;-66
2023/07/25 01:50:27;;;;;;;8.07;3.25;;;16.70;72.50;;;;;;5053015;28;20119;-66
2023/07/25 01:52:53;;;;;;;7.05;2.60;;;16.70;72.50;;;;;;5056667;28;20346;-66
2023/07/25 01:55:19;;;;;;;7.22;2.60;;;16.60;72.50;;;;;;5056509;28;20017;-66
2023/07/25 01:57:45;;;;;;;8.35;2.88;;;16.60;72.60;;;;;;5027592;28;20025;-65
2023/07/25 02:00:11;;;;;;;8.25;3.03;;;16.60;72.70;;;;;;5055397;28;20028;-65
2023/07/25 02:02:39;;;;;;;7.10;2.78;;;16.60;72.70;;;;;;5052323;28;20037;-66
2023/07/25 02:05:05;;;;;;;8.75;3.13;;;16.50;72.60;;;;;;5055469;28;20025;-65
2023/07/25 02:07:31;;;;;;;6.72;2.65;;;16.50;72.60;;;;;;5054346;28;20196;-65
2023/07/25 02:09:57;;;;;;;6.55;2.60;;;16.50;72.60;;;;;;5055712;28;20082;-65
2023/07/25 02:12:23;;;;;;;6.80;2.65;;;16.50;72.70;;;;;;5049429;28;20842;-65
2023/07/25 02:14:49;;;;;;;7.65;3.22;;;16.50;72.70;;;;;;5055722;28;20116;-66
2023/07/25 02:17:18;;;;;;;7.53;3.20;;;16.50;72.70;;;;;;5045915;28;20028;-66
2023/07/25 02:19:44;;;;;;;8.98;3.50;;;16.50;72.80;;;;;;5054465;28;20055;-65
2023/07/25 02:22:10;;;;;;;8.88;3.67;;;16.50;72.90;;;;;;5051406;28;20132;-65
2023/07/25 02:24:35;;;;;;;8.35;3.72;;;16.40;73.00;;;;;;5052770;28;20032;-65
2023/07/25 02:27:01;;;;;;;9.93;4.00;;;16.40;73.10;;;;;;5050117;28;20017;-65
2023/07/25 02:29:27;;;;;;;8.38;4.22;;;16.40;73.20;;;;;;5054076;28;20032;-66
2023/07/25 02:31:53;;;;;;;11.63;4.53;;;16.40;73.30;;;;;;5048394;28;20048;-66
2023/07/25 02:34:18;;;;;;;10.00;4.65;;;16.40;73.30;;;;;;5050760;28;20029;-65
2023/07/25 02:36:44;;;;;;;9.65;5.07;;;16.40;73.40;;;;;;5042833;28;20465;-66
2023/07/25 02:39:10;;;;;;;9.43;4.78;;;16.40;73.40;;;;;;5054894;28;20064;-66
2023/07/25 02:41:35;;;;;;;9.00;4.60;;;16.40;73.40;;;;;;5051630;28;20037;-65
2023/07/25 02:44:03;;;;;;;10.52;4.60;;;16.40;73.50;;;;;;5047930;28;20466;-66
2023/07/25 02:46:28;;;;;;;7.90;3.88;;;16.30;73.50;;;;;;5040697;28;20212;-66
2023/07/25 02:48:55;;;;;;;8.88;3.50;;;16.30;73.60;;;;;;5055198;28;20032;-65
2023/07/25 02:51:21;;;;;;;8.25;3.58;;;16.30;73.70;;;;;;5053594;28;20029;-66
2023/07/25 02:53:47;;;;;;;7.68;3.28;;;16.30;73.80;;;;;;5052223;28;20146;-65
2023/07/25 02:56:12;;;;;;;8.63;2.95;;;16.20;73.70;;;;;;5053940;28;20071;-65
2023/07/25 02:58:38;;;;;;;7.55;3.55;;;16.20;73.70;;;;;;5053104;28;20037;-65
2023/07/25 03:01:04;;;;;;;7.97;3.13;;;16.20;73.80;;;;;;5035995;28;20187;-66
2023/07/25 03:03:30;;;;;;;6.88;3.25;;;16.20;73.80;;;;;;5066676;28;20368;-65
2023/07/25 03:05:55;;;;;;;7.95;2.97;;;16.20;73.80;;;;;;5049867;28;20098;-65
2023/07/25 03:08:21;;;;;;;5.63;2.75;;;16.20;73.80;;;;;;5040980;28;20037;-65
2023/07/25 03:10:47;;;;;;;7.60;3.00;;;16.10;73.80;;;;;;5045022;28;20029;-65
2023/07/25 03:13:13;;;;;;;5.95;2.72;;;16.10;73.90;;;;;;5041904;28;20362;-65
2023/07/25 03:15:39;;;;;;;7.18;2.65;;;16.10;74.00;;;;;;5047100;28;20415;-65
2023/07/25 03:18:04;;;;;;;7.35;3.13;;;16.10;74.00;;;;;;5044464;28;20026;-65
2023/07/25 03:20:30;;;;;;;7.05;3.10;;;16.10;73.90;;;;;;5070057;28;20024;-65
2023/07/25 03:22:56;;;;;;;8.95;3.38;;;16.10;73.90;;;;;;5053153;28;20029;-65
2023/07/25 03:25:22;;;;;;;7.82;2.95;;;16.10;73.90;;;;;;5052617;28;20021;-65
2023/07/25 03:27:48;;;;;;;8.95;3.10;;;16.10;73.90;;;;;;5052768;28;20454;-65
2023/07/25 03:30:13;;;;;;;7.47;3.05;;;16.10;73.90;;;;;;5054419;28;20033;-65
2023/07/25 03:32:39;;;;;;;6.88;3.50;;;16.00;73.90;;;;;;5053077;28;20108;-65
2023/07/25 03:35:05;;;;;;;7.72;2.85;;;16.00;73.90;;;;;;5053322;28;20025;-65
2023/07/25 03:37:31;;;;;;;6.70;3.20;;;16.00;73.90;;;;;;5041128;28;20342;-65
2023/07/25 03:39:57;;;;;;;6.63;2.83;;;16.00;74.00;;;;;;5055220;28;20036;-65
2023/07/25 03:42:23;;;;;;;8.43;3.40;;;16.00;74.00;;;;;;5052677;28;20029;-66
2023/07/25 03:44:48;;;;;;;6.53;3.13;;;15.90;74.00;;;;;;5040427;28;20410;-65
2023/07/25 03:47:14;;;;;;;7.70;3.28;;;15.90;74.10;;;;;;5053228;28;20124;-65
2023/07/25 03:49:40;;;;;;;8.90;3.00;;;15.90;74.10;;;;;;5040467;28;20056;-65
2023/07/25 03:52:06;;;;;;;10.07;3.00;;;15.90;74.10;;;;;;5054107;28;20029;-65
2023/07/25 03:54:32;;;;;;;10.02;3.33;;;15.90;74.20;;;;;;5040154;28;20051;-65
2023/07/25 03:56:58;;;;;;;9.02;3.58;;;15.90;74.20;;;;;;5052142;28;20025;-65
2023/07/25 03:59:25;;;;;;;8.48;3.20;;;15.90;74.20;;;;;;5052735;28;20462;-65
2023/07/25 04:01:50;;;;;;;11.13;3.58;;;15.90;74.30;;;;;;5054703;28;20036;-65
2023/07/25 04:04:16;;;;;;;10.75;3.38;;;15.90;74.30;;;;;;5050908;28;20071;-65
2023/07/25 04:06:42;;;;;;;7.65;3.08;;;15.90;74.30;;;;;;5048654;28;20043;-65
2023/07/25 04:09:07;;;;;;;7.30;3.50;;;15.90;74.40;;;;;;5050884;28;20029;-65
2023/07/25 04:11:33;;;;;;;7.65;3.22;;;15.90;74.40;;;;;;5036931;28;20021;-65
2023/07/25 04:13:59;;;;;;;6.72;3.22;;;15.90;74.40;;;;;;5043980;28;20044;-65
2023/07/25 04:16:24;;;;;;;11.10;3.22;;;16.00;74.50;;;;;;5046591;28;20033;-65
2023/07/25 04:18:50;;;;;;;9.43;3.40;;;16.00;74.60;;;;;;5045666;28;20476;-65
2023/07/25 04:21:16;;;;;;;8.13;3.53;;;16.00;74.50;;;;;;5053617;28;20070;-65
2023/07/25 04:23:42;;;;;;;7.10;3.03;;;16.00;74.50;;;;;;5044419;28;20025;-65
2023/07/25 04:26:08;;;;;;;7.57;3.30;;;16.00;74.50;;;;;;5054326;28;20040;-67
2023/07/25 04:28:34;;;;;;;8.88;3.55;;;16.00;74.60;;;;;;5043696;28;20021;-64
2023/07/25 04:31:00;;;;;;;9.80;3.60;;;15.90;74.60;;;;;;5054346;28;20339;-65
2023/07/25 04:33:26;;;;;;;6.88;3.03;;;15.90;74.60;;;;;;5050473;28;20454;-65
2023/07/25 04:35:51;;;;;;;8.13;3.20;;;15.90;74.60;;;;;;5039478;28;20025;-65
2023/07/25 04:38:17;;;;;;;6.50;3.10;;;15.90;74.60;;;;;;5044173;28;20029;-65
2023/07/25 04:40:44;;;;;;;6.45;2.92;;;15.90;74.60;;;;;;5045793;28;20082;-65
2023/07/25 04:43:10;;;;;;;8.02;3.25;;;15.90;74.60;;;;;;5043450;28;20465;-65
2023/07/25 04:45:37;;;;;;;6.93;3.03;;;16.00;74.60;;;;;;5049906;28;20114;-65
2023/07/25 04:48:03;;;;;;;7.38;3.40;;;16.00;74.60;;;;;;5057825;28;20048;-66
2023/07/25 04:50:29;;;;;;;10.02;3.63;;;16.00;74.60;;;;;;5058868;28;20043;-66
2023/07/25 04:52:54;;;;;;;7.30;3.55;;;16.00;74.60;;;;;;5039689;28;20025;-66
2023/07/25 04:55:20;;;;;;;7.15;3.30;;;16.00;74.60;;;;;;5050767;28;20040;-66
2023/07/25 04:57:46;;;;;;;7.45;3.00;;;16.00;74.60;;;;;;5033926;28;20039;-65
2023/07/25 05:00:12;;;;;;;7.85;2.53;;;16.00;74.60;;;;;;5038193;28;20079;-65
2023/07/25 05:02:38;;;;;;;8.57;3.25;;;16.00;74.60;;;;;;5043202;28;20037;-65
2023/07/25 05:05:04;;;;;;;8.48;3.10;;;16.10;74.70;;;;;;5050157;28;20079;-65
2023/07/25 05:07:30;;;;;;;6.95;2.70;;;16.10;74.70;;;;;;5051299;28;20032;-65
2023/07/25 05:09:55;;;;;;;10.88;3.15;;;16.10;74.60;;;;;;5045703;28;20310;-65
2023/07/25 05:12:21;;;;;;;7.97;2.92;;;16.20;74.60;;;;;;5046018;28;20052;-65
2023/07/25 05:14:47;;;;;;;6.78;2.92;;;16.20;74.50;;;;;;5051017;28;20026;-65
2023/07/25 05:17:12;;;;;;;6.80;3.05;;;16.20;74.30;;;;;;5053190;28;20029;-65
2023/07/25 05:19:40;;;;;;;9.10;3.33;;;16.30;74.30;;;;;;5046684;28;20035;-65
2023/07/25 05:22:06;;;;;;;10.57;3.45;;;16.30;74.20;;;;;;5050800;28;20024;-65
2023/07/25 05:24:31;;;;;;;7.72;3.25;;;16.30;74.10;;;;;;5057037;28;20091;-65
2023/07/25 05:26:57;;;;;;;8.75;3.50;;;16.40;74.00;;;;;;5057337;28;20033;-65
2023/07/25 05:29:23;;;;;;;8.50;3.35;;;16.40;73.90;;;;;;5054234;28;20477;-65
2023/07/25 05:31:48;;;;;;;9.20;3.05;;;16.40;73.70;;;;;;5052929;28;20033;-65
2023/07/25 05:34:14;;;;;;;9.02;3.30;;;16.50;73.50;;;;;;5048634;28;20044;-65
2023/07/25 05:36:40;;;;;;;12.43;3.40;;;16.60;73.40;;;;;;5054880;28;20032;-65
2023/07/25 05:39:06;;;;;;;9.85;3.20;;;16.70;73.20;;;;;;5039837;28;20358;-65
2023/07/25 05:41:32;;;;;;;7.82;2.97;;;16.70;73.10;;;;;;5038601;28;20435;-65
2023/07/25 05:43:58;;;;;;;5.65;2.70;;;16.80;72.90;;;;;;5055909;28;20037;-65
2023/07/25 05:46:23;;;;;;;5.43;2.58;;;16.80;72.70;;;;;;5054764;28;20120;-65
2023/07/25 05:48:49;;;;;;;27.73;5.55;;;16.90;72.70;;;;;;5046834;28;20025;-64
2023/07/25 05:51:15;;;;;;;49.47;6.50;;;16.90;72.40;;;;;;5050776;28;20357;-63
2023/07/25 05:53:41;;;;;;;10.38;2.50;;;17.00;72.30;;;;;;5050415;28;20037;-64
2023/07/25 05:56:06;;;;;;;9.20;2.97;;;17.10;72.20;;;;;;5050127;28;20032;-64
2023/07/25 05:58:32;;;;;;;8.80;3.33;;;17.20;72.10;;;;;;5051049;28;20028;-64
2023/07/25 06:00:58;;;;;;;6.32;2.45;;;17.30;72.10;;;;;;5054594;28;20061;-65
2023/07/25 06:03:24;;;;;;;10.25;3.15;;;17.40;71.90;;;;;;5048181;28;20033;-65
2023/07/25 06:05:49;;;;;;;10.18;3.15;;;17.50;71.60;;;;;;5042864;28;20033;-64
2023/07/25 06:08:15;;;;;;;7.75;2.95;;;17.50;71.30;;;;;;5045429;28;20404;-64
2023/07/25 06:10:41;;;;;;;6.85;3.08;;;17.70;71.20;;;;;;5046099;28;20775;-65
2023/07/25 06:13:07;;;;;;;7.55;2.58;;;17.80;71.00;;;;;;5048474;28;20143;-64
2023/07/25 06:15:34;;;;;;;9.23;3.05;;;17.90;70.80;;;;;;5047582;28;20072;-64
2023/07/25 06:18:03;;;;;;;8.20;2.90;;;17.90;70.60;;;;;;5047488;28;20029;-64
2023/07/25 06:20:29;;;;;;;7.75;2.67;;;17.90;70.40;;;;;;5042113;28;20112;-64
2023/07/25 06:22:55;;;;;;;9.30;2.90;;;17.80;70.40;;;;;;5044624;28;20449;-64
2023/07/25 06:25:20;;;;;;;7.93;3.13;;;17.70;70.40;;;;;;5040725;28;20034;-64
2023/07/25 06:27:46;;;;;;;9.90;3.50;;;17.70;70.50;;;;;;5047909;28;20163;-64
2023/07/25 06:30:12;;;;;;;7.00;3.13;;;17.80;70.50;;;;;;5044215;28;20044;-64
2023/07/25 06:32:38;;;;;;;7.93;2.85;;;17.80;70.50;;;;;;5044366;28;20116;-65
2023/07/25 06:35:04;;;;;;;8.45;3.50;;;17.80;70.50;;;;;;5055190;28;20025;-65
2023/07/25 06:37:33;;;;;;;8.32;2.95;;;17.80;70.50;;;;;;5039941;28;20421;-65
2023/07/25 06:40:02;;;;;;;8.32;3.13;;;17.90;70.50;;;;;;5042014;28;20334;-65
2023/07/25 06:42:29;;;;;;;7.28;2.90;;;18.00;70.50;;;;;;5049685;28;20024;-65
2023/07/25 06:44:58;;;;;;;7.43;2.70;;;18.10;70.30;;;;;;5054348;28;20053;-65
2023/07/25 06:47:24;;;;;;;8.25;2.70;;;18.20;70.20;;;;;;5054658;28;20067;-66
2023/07/25 06:49:51;;;;;;;7.97;2.90;;;18.30;70.10;;;;;;5044624;28;20025;-65
2023/07/25 06:52:16;;;;;;;7.20;3.00;;;18.40;69.90;;;;;;5050923;28;20047;-65
2023/07/25 06:54:43;;;;;;;7.65;2.28;;;18.50;69.40;;;;;;5047927;28;20029;-65
2023/07/25 06:57:10;;;;;;;6.05;2.50;;;18.60;69.10;;;;;;5052855;28;20037;-64
2023/07/25 06:59:35;;;;;;;7.05;2.50;;;18.70;69.10;;;;;;5054813;28;20091;-64
2023/07/25 07:02:02;;;;;;;6.50;2.53;;;18.70;69.10;;;;;;5052894;28;20366;-65
2023/07/25 07:04:27;;;;;;;7.18;2.47;;;18.70;69.10;;;;;;5048352;28;20052;-68
2023/07/25 07:06:53;;;;;;;6.60;2.83;;;18.80;69.20;;;;;;5048990;28;20438;-68
2023/07/25 07:09:19;;;;;;;7.47;2.20;;;18.90;69.10;;;;;;5046350;28;20078;-66
2023/07/25 07:11:45;;;;;;;7.05;2.35;;;18.90;69.00;;;;;;5051433;28;20071;-66
2023/07/25 07:14:11;;;;;;;7.05;2.55;;;18.80;68.80;;;;;;5044209;28;20532;-66
2023/07/25 07:16:37;;;;;;;5.70;2.00;;;18.90;68.80;;;;;;5045132;28;20449;-65
2023/07/25 07:19:03;;;;;;;6.05;2.17;;;19.00;68.50;;;;;;5045520;28;20053;-65
2023/07/25 07:21:29;;;;;;;8.50;2.40;;;19.20;68.00;;;;;;5045801;28;20041;-65
2023/07/25 07:23:55;;;;;;;7.78;2.30;;;19.40;67.50;;;;;;5042512;28;20029;-65
2023/07/25 07:26:21;;;;;;;12.02;2.13;;;19.60;67.20;;;;;;5044286;28;20457;-66
2023/07/25 07:28:46;;;;;;;5.30;1.80;;;19.70;66.90;;;;;;5037310;28;20021;-65
2023/07/25 07:31:12;;;;;;;5.78;1.95;;;19.80;66.40;;;;;;5044227;28;20468;-66
2023/07/25 07:33:39;;;;;;;6.03;1.80;;;20.00;66.20;;;;;;5050977;28;20457;-66
2023/07/25 07:36:06;;;;;;;5.30;1.88;;;20.20;65.80;;;;;;5028948;28;21732;-66
2023/07/25 07:38:31;;;;;;;3.42;1.23;;;20.40;65.20;;;;;;5047151;28;20110;-66
2023/07/25 07:40:57;;;;;;;5.53;1.67;;;20.50;64.60;;;;;;5047262;28;20441;-66
2023/07/25 07:43:23;;;;;;;5.50;1.30;;;20.60;64.20;;;;;;5044030;28;20039;-66
2023/07/25 07:45:49;;;;;;;4.55;1.40;;;20.60;64.10;;;;;;5047402;28;20027;-66
2023/07/25 07:48:15;;;;;;;5.68;1.50;;;20.50;64.10;;;;;;5034591;28;20033;-66
2023/07/25 07:50:43;;;;;;;6.40;1.60;;;20.40;64.10;;;;;;5048240;28;20395;-66
2023/07/25 07:53:09;;;;;;;4.47;1.60;;;20.30;64.30;;;;;;5050656;28;20033;-65
2023/07/25 07:55:35;;;;;;;4.05;1.55;;;20.20;64.30;;;;;;5045037;28;20067;-66
2023/07/25 07:58:01;;;;;;;4.80;1.50;;;20.40;64.10;;;;;;5046398;28;20434;-66
2023/07/25 08:00:28;;;;;;;3.38;1.30;;;20.60;63.20;;;;;;5050218;28;20037;-67
2023/07/25 08:02:53;;;;;;;5.00;1.33;;;20.80;62.70;;;;;;5048624;28;20028;-67
2023/07/25 08:05:19;;;;;;;3.47;1.23;;;21.20;62.20;;;;;;5042745;28;20056;-66
2023/07/25 08:07:45;;;;;;;3.90;1.48;;;21.50;61.50;;;;;;5059500;28;20039;-66
2023/07/25 08:10:11;;;;;;;3.92;1.13;;;21.60;61.10;;;;;;5043796;28;20021;-67
2023/07/25 08:12:38;;;;;;;4.97;1.27;;;21.60;60.90;;;;;;5044924;28;20116;-67
2023/07/25 08:15:05;;;;;;;2.05;1.05;;;21.70;60.50;;;;;;5046354;28;20108;-67
2023/07/25 08:17:30;;;;;;;5.25;1.42;;;21.60;60.30;;;;;;5050971;28;20029;-67
2023/07/25 08:19:56;;;;;;;6.78;1.70;;;21.40;60.20;;;;;;5054806;28;20029;-67
2023/07/25 08:22:22;;;;;;;5.13;1.33;;;21.30;60.30;;;;;;5054780;28;20025;-67
2023/07/25 08:24:50;;;;;;;4.30;1.30;;;21.10;60.20;;;;;;5036984;28;20361;-67
2023/07/25 08:27:16;;;;;;;4.07;1.25;;;21.00;60.40;;;;;;5051736;28;20108;-67
2023/07/25 08:29:45;;;;;;;6.28;1.55;;;20.90;60.50;;;;;;5050147;28;20394;-67
2023/07/25 08:32:11;;;;;;;4.30;1.00;;;20.90;61.30;;;;;;5053702;28;20446;-67
2023/07/25 08:34:38;;;;;;;5.20;1.20;;;20.90;60.20;;;;;;5034723;28;20021;-67
2023/07/25 08:37:07;;;;;;;3.20;1.13;;;20.80;59.70;;;;;;5037622;28;20083;-67
2023/07/25 08:39:34;;;;;;;4.90;1.27;;;20.90;59.80;;;;;;5053614;28;20450;-67
2023/07/25 08:42:03;;;;;;;7.35;1.33;;;21.00;59.50;;;;;;5052705;28;20021;-67
2023/07/25 08:44:33;;;;;;;5.28;1.33;;;21.10;59.00;;;;;;5053733;28;20024;-67
2023/07/25 08:47:09;;;;;;;4.10;1.10;;;21.40;58.30;;;;;;5053409;28;20029;-67
2023/07/25 08:49:36;;;;;;;2.97;1.13;;;21.50;57.90;;;;;;5053658;28;20294;-67
2023/07/25 08:52:03;;;;;;;4.40;1.70;;;21.70;57.70;;;;;;5050696;28;20081;-67
2023/07/25 08:54:36;;;;;;;6.38;1.70;;;21.80;57.20;;;;;;5038375;28;20060;-67
2023/07/25 08:57:04;;;;;;;3.55;1.13;;;21.80;56.70;;;;;;5061363;28;20287;-67
2023/07/25 08:59:31;;;;;;;5.82;1.38;;;21.80;56.90;;;;;;5061014;28;20055;-67
2023/07/25 09:01:57;;;;;;;4.15;1.27;;;21.60;57.30;;;;;;5059202;28;20041;-67
2023/07/25 09:04:25;;;;;;;3.55;1.42;;;21.40;57.80;;;;;;5058811;28;20044;-67
2023/07/25 09:06:51;;;;;;;4.63;1.50;;;21.10;58.40;;;;;;5057740;28;20033;-67
2023/07/25 09:09:18;;;;;;;7.18;1.65;;;20.80;59.20;;;;;;5060658;28;20530;-67
2023/07/25 09:11:44;;;;;;;3.60;1.13;;;20.70;59.70;;;;;;5060887;28;20350;-65
2023/07/25 09:14:13;;;;;;;2.85;1.15;;;20.50;59.50;;;;;;5051611;28;20038;-67
2023/07/25 09:16:39;;;;;;;3.85;1.42;;;20.50;59.30;;;;;;5060156;28;20021;-68
2023/07/25 09:19:06;;;;;;;2.17;0.80;;;20.70;58.90;;;;;;5048346;28;20030;-67
2023/07/25 09:21:31;;;;;;;4.05;1.20;;;20.90;58.30;;;;;;5047880;28;20039;-67
2023/07/25 09:23:59;;;;;;;4.32;1.00;;;21.00;57.80;;;;;;5053667;28;20025;-67
2023/07/25 09:26:29;;;;;;;3.50;0.90;;;21.30;57.10;;;;;;5059638;28;20112;-66
2023/07/25 09:28:57;;;;;;;2.45;0.80;;;21.60;56.70;;;;;;5055924;28;20036;-67
2023/07/25 09:31:24;;;;;;;3.47;1.15;;;22.00;56.00;;;;;;5053830;28;20048;-68
2023/07/25 09:33:55;;;;;;;2.50;1.00;;;22.40;55.20;;;;;;5052249;28;20044;-67
2023/07/25 09:36:21;;;;;;;2.30;1.00;;;22.90;54.40;;;;;;5049013;28;20025;-67
2023/07/25 09:38:53;;;;;;;2.13;0.90;;;23.10;53.50;;;;;;5052730;28;20040;-67
2023/07/25 09:41:21;;;;;;;1.98;0.90;;;23.50;53.10;;;;;;5053459;28;20057;-67
2023/07/25 09:43:47;;;;;;;4.22;1.17;;;23.80;52.40;;;;;;5052549;28;20075;-67
2023/07/25 09:46:12;;;;;;;2.20;0.77;;;24.00;51.60;;;;;;5054660;28;20079;-68
2023/07/25 09:48:51;;;;;;;2.95;0.82;;;24.20;51.20;;;;;;5052657;28;20464;-68
2023/07/25 09:51:17;;;;;;;3.22;1.02;;;24.30;50.50;;;;;;5049495;28;20032;-67
2023/07/25 09:53:44;;;;;;;2.38;0.85;;;24.50;50.50;;;;;;5053092;28;20029;-67
2023/07/25 09:56:11;;;;;;;3.83;1.00;;;24.30;50.90;;;;;;5050983;28;20178;-67
2023/07/25 09:58:37;;;;;;;2.78;0.88;;;23.90;50.40;;;;;;5046520;28;20036;-67
2023/07/25 10:01:03;;;;;;;5.28;0.80;;;23.60;50.60;;;;;;5057904;28;20040;-67
2023/07/25 10:03:30;;;;;;;2.55;0.70;;;23.30;50.60;;;;;;5055383;28;20107;-67
2023/07/25 10:05:57;;;;;;;1.92;0.80;;;23.20;50.70;;;;;;5051804;28;20156;-68
2023/07/25 10:08:26;;;;;;;1.95;0.80;;;23.20;50.40;;;;;;5052337;28;20037;-68
2023/07/25 10:10:55;;;;;;;3.70;1.33;;;23.50;49.50;;;;;;5048762;28;20029;-68
2023/07/25 10:13:21;;;;;;;1.92;0.68;;;23.60;49.10;;;;;;5051427;28;20048;-68
2023/07/25 10:15:48;;;;;;;2.90;1.05;;;23.40;49.00;;;;;;5049483;28;20021;-67
2023/07/25 10:18:25;;;;;;;3.03;0.90;;;23.20;49.40;;;;;;5046724;28;20040;-68
2023/07/25 10:20:53;;;;;;;2.65;0.95;;;23.00;49.00;;;;;;5052722;28;20025;-68
2023/07/25 10:23:28;;;;;;;1.88;0.80;;;23.10;49.10;;;;;;5056426;28;20021;-67
2023/07/25 10:25:54;;;;;;;3.35;1.00;;;23.30;48.70;;;;;;5054656;28;20029;-68
2023/07/25 10:28:22;;;;;;;5.03;0.90;;;23.40;48.60;;;;;;5054109;28;20029;-67
2023/07/25 10:30:48;;;;;;;3.78;1.05;;;23.40;48.60;;;;;;5057005;28;20044;-67
2023/07/25 10:33:16;;;;;;;3.60;1.00;;;23.40;48.80;;;;;;5056719;28;20060;-68
2023/07/25 10:35:50;;;;;;;3.55;1.15;;;23.20;49.10;;;;;;5054424;28;20091;-67
2023/07/25 10:38:33;;;;;;;3.10;0.90;;;23.00;49.20;;;;;;5052257;28;20013;-68
2023/07/25 10:41:09;;;;;;;2.97;0.90;;;23.00;49.40;;;;;;5056566;28;20039;-68
2023/07/25 10:43:52;;;;;;;3.40;1.10;;;23.20;49.10;;;;;;5038840;28;20040;-68
2023/07/25 10:46:22;;;;;;;2.72;0.70;;;23.50;48.40;;;;;;5053378;28;20143;-68
2023/07/25 10:48:52;;;;;;;1.55;0.80;;;23.80;47.80;;;;;;5035345;28;20093;-68
2023/07/25 10:51:19;;;;;;;1.95;0.60;;;24.00;47.50;;;;;;5056458;28;20465;-68
2023/07/25 10:54:09;;;;;;;3.47;0.90;;;24.20;46.50;;;;;;5055440;28;20384;-67
2023/07/25 10:56:35;;;;;;;4.05;0.80;;;24.40;46.30;;;;;;5055221;28;20120;-68
2023/07/25 10:59:11;;;;;;;4.47;1.55;;;24.60;46.10;;;;;;5055225;28;20099;-68
2023/07/25 11:01:46;;;;;;;2.22;1.02;;;24.60;45.50;;;;;;5056088;28;20041;-68
2023/07/25 11:04:26;;;;;;;2.22;0.80;;;24.60;45.80;;;;;;5056495;28;20029;-68
2023/07/25 11:07:13;;;;;;;2.58;0.60;;;24.80;44.80;;;;;;5054157;28;20319;-68
2023/07/25 11:09:43;;;;;;;4.90;1.20;;;24.90;44.80;;;;;;5051068;28;20083;-68
2023/07/25 11:12:10;;;;;;;3.63;0.90;;;24.90;43.50;;;;;;5055764;28;20025;-68
2023/07/25 11:14:44;;;;;;;1.67;0.60;;;24.90;43.60;;;;;;5053795;28;20112;-67
2023/07/25 11:17:13;;;;;;;2.50;0.70;;;24.90;43.80;;;;;;5027646;28;20378;-68
2023/07/25 11:19:39;;;;;;;3.17;0.90;;;25.00;43.20;;;;;;5048410;28;20033;-68
2023/07/25 11:22:09;;;;;;;2.47;0.93;;;25.00;43.00;;;;;;5048567;28;20474;-68
2023/07/25 11:24:47;;;;;;;2.43;0.70;;;25.00;43.30;;;;;;5051242;28;20438;-68
2023/07/25 11:27:14;;;;;;;3.20;0.75;;;25.00;43.60;;;;;;5063472;28;20036;-68
2023/07/25 11:29:40;;;;;;;2.72;0.95;;;24.90;43.70;;;;;;5045439;28;20036;-68
2023/07/25 11:32:07;;;;;;;1.67;0.73;;;24.90;43.90;;;;;;5056121;28;20500;-68
2023/07/25 11:34:33;;;;;;;2.35;0.70;;;24.90;43.70;;;;;;5045103;28;20041;-68
2023/07/25 11:36:59;;;;;;;1.77;0.70;;;25.10;43.30;;;;;;5045402;28;20068;-68
2023/07/25 11:39:25;;;;;;;2.22;0.60;;;25.30;42.90;;;;;;5052111;28;20079;-68
2023/07/25 11:41:50;;;;;;;3.50;0.80;;;25.40;42.60;;;;;;5069354;28;20025;-68
2023/07/25 11:44:18;;;;;;;1.05;0.57;;;25.50;42.20;;;;;;5041508;28;20025;-67
2023/07/25 11:46:50;;;;;;;2.33;0.70;;;25.50;42.10;;;;;;5040930;28;20037;-67
2023/07/25 11:49:17;;;;;;;1.65;0.75;;;25.50;42.20;;;;;;5036756;28;20017;-67
2023/07/25 11:51:44;;;;;;;1.75;0.75;;;25.40;42.10;;;;;;5042452;28;20073;-68
2023/07/25 11:54:10;;;;;;;1.73;0.50;;;25.30;41.90;;;;;;5045684;28;20026;-67
2023/07/25 11:56:37;;;;;;;4.05;0.80;;;25.10;41.70;;;;;;5046628;28;20021;-68
2023/07/25 11:59:03;;;;;;;1.35;0.75;;;24.90;41.70;;;;;;5036594;28;20430;-67
2023/07/25 12:01:33;;;;;;;1.52;0.60;;;24.70;41.80;;;;;;5046337;28;20342;-67
2023/07/25 12:04:00;;;;;;;2.72;0.80;;;24.50;42.00;;;;;;5034557;28;20458;-67
2023/07/25 12:06:31;;;;;;;1.90;0.75;;;24.30;42.00;;;;;;5046329;28;20038;-67
2023/07/25 12:08:58;;;;;;;1.13;0.47;;;24.20;42.10;;;;;;5043913;28;20155;-67
2023/07/25 12:11:24;;;;;;;1.73;0.63;;;24.10;42.20;;;;;;5048361;28;20033;-68
2023/07/25 12:13:52;;;;;;;1.00;0.50;;;24.20;42.10;;;;;;5048476;28;20067;-67
2023/07/25 12:16:32;;;;;;;0.95;0.50;;;24.20;42.00;;;;;;5044001;28;20032;-67
2023/07/25 12:19:03;;;;;;;3.23;0.70;;;24.30;41.90;;;;;;5066357;28;20434;-65
2023/07/25 12:21:32;;;;;;;2.22;0.70;;;24.40;41.90;;;;;;5048459;28;20387;-66
2023/07/25 12:24:08;;;;;;;2.63;0.85;;;24.50;42.00;;;;;;5048928;28;20028;-67
2023/07/25 12:26:48;;;;;;;3.28;0.73;;;24.30;42.00;;;;;;5045240;28;20335;-67
2023/07/25 12:29:16;;;;;;;4.55;1.05;;;24.10;42.20;;;;;;5044053;28;20090;-67
2023/07/25 12:31:42;;;;;;;2.75;0.85;;;23.90;42.60;;;;;;5042787;28;20414;-67
2023/07/25 12:34:08;;;;;;;3.05;0.90;;;23.80;42.80;;;;;;5045070;28;20053;-67
2023/07/25 12:36:34;;;;;;;1.77;0.68;;;23.80;42.80;;;;;;5037881;28;20057;-67
2023/07/25 12:39:00;;;;;;;1.38;0.68;;;23.90;42.90;;;;;;5046995;28;20107;-67
2023/07/25 12:41:26;;;;;;;1.63;0.60;;;24.00;43.20;;;;;;5037756;28;20025;-67
2023/07/25 12:43:51;;;;;;;3.47;1.02;;;24.00;43.40;;;;;;5048792;28;20037;-67